Time;durP1;ratioP1;P1;durP2;ratioP2;P2;SDS_P1;SDS_P2;PMS_P1;PMS_P2;Temp;Humidity;BMP_temperature;BMP_pressure;BME280_temperature;BME280_humidity;BME280_pressure;Samples;Min_cycle;Max_cycle;Signal;HPM_P1;HPM_P2
2023/06/14 00:00:14;;;;;;;;;;;;;;;22.09;30.40;97534.78;5002231;28;883;-77
2023/06/14 00:02:40;;;;;;;;;;;;;;;21.85;30.72;97532.38;5002862;28;968;-77
2023/06/14 00:05:06;;;;;;;;;;;;;;;22.14;30.09;97530.63;5002285;28;1973;-77
2023/06/14 00:07:38;;;;;;;;;;;;;;;22.25;29.97;97540.31;4982578;28;952;-77
2023/06/14 00:10:04;;;;;;;;;;;;;;;21.95;30.47;97541.75;4982180;28;1043;-77
2023/06/14 00:12:30;;;;;;;;;;;;;;;21.85;30.87;97531.59;4940981;29;958;-77
2023/06/14 00:14:56;;;;;;;;;;;;;;;22.10;30.23;97530.72;4940599;29;1000;-77
2023/06/14 00:17:22;;;;;;;;;;;;;;;21.92;30.62;97536.22;4924974;29;957;-77
2023/06/14 00:19:47;;;;;;;;;;;;;;;21.79;30.72;97528.56;4924600;29;1184;-78
2023/06/14 00:22:13;;;;;;;;;;;;;;;21.78;30.84;97529.81;4941355;29;988;-77
2023/06/14 00:24:38;;;;;;;;;;;;;;;21.92;30.63;97525.69;4940665;29;949;-77
2023/06/14 00:27:05;;;;;;;;;;;;;;;21.99;30.54;97530.31;4921833;29;1911;-77
2023/06/14 00:29:30;;;;;;;;;;;;;;;22.04;30.47;97529.72;4921552;29;1291;-77
2023/06/14 00:31:56;;;;;;;;;;;;;;;22.16;30.24;97528.91;4921969;29;1316;-76
2023/06/14 00:34:21;;;;;;;;;;;;;;;22.02;30.34;97523.69;4921791;29;981;-77
2023/06/14 00:36:47;;;;;;;;;;;;;;;22.10;30.51;97525.03;4922200;29;1017;-77
2023/06/14 00:39:13;;;;;;;;;;;;;;;22.21;30.10;97531.13;4921153;29;1060;-77
2023/06/14 00:41:39;;;;;;;;;;;;;;;21.99;30.38;97531.09;4921910;29;1187;-77
2023/06/14 00:44:05;;;;;;;;;;;;;;;21.89;30.97;97526.59;4958733;28;1003;-76
2023/06/14 00:46:30;;;;;;;;;;;;;;;22.23;30.04;97528.66;4969300;28;1902;-77
2023/06/14 00:48:56;;;;;;;;;;;;;;;22.24;30.31;97530.22;5017974;28;1013;-77
2023/06/14 00:51:21;;;;;;;;;;;;;;;22.24;30.10;97530.22;4985831;28;948;-78
2023/06/14 00:53:47;;;;;;;;;;;;;;;22.03;30.52;97525.31;4985037;28;1236;-77
2023/06/14 00:56:14;;;;;;;;;;;;;;;22.14;30.34;97525.75;4982470;28;939;-77
2023/06/14 00:58:41;;;;;;;;;;;;;;;22.14;30.40;97522.91;4981016;28;966;-77
2023/06/14 01:01:06;;;;;;;;;;;;;;;22.06;30.52;97518.72;5001806;28;1202;-78
2023/06/14 01:03:33;;;;;;;;;;;;;;;21.95;30.37;97518.31;5017308;28;985;-77
2023/06/14 01:06:02;;;;;;;;;;;;;;;22.02;30.43;97523.69;5018191;28;1902;-77
2023/06/14 01:08:42;;;;;;;;;;;;;;;22.21;30.52;97533.19;5000775;28;946;-77
2023/06/14 01:11:12;;;;;;;;;;;;;;;22.10;30.48;97527.88;5001215;28;1056;-77
2023/06/14 01:13:39;;;;;;;;;;;;;;;22.06;30.71;97524.38;5000669;28;1148;-77
2023/06/14 01:16:05;;;;;;;;;;;;;;;22.04;30.70;97526.88;5001327;28;922;-77
2023/06/14 01:18:32;;;;;;;;;;;;;;;22.04;30.74;97524.84;5000492;28;1233;-77
2023/06/14 01:20:57;;;;;;;;;;;;;;;21.96;30.72;97526.34;5000447;28;1250;-77
2023/06/14 01:23:25;;;;;;;;;;;;;;;21.90;30.88;97527.38;5000106;28;1057;-77
2023/06/14 01:25:55;;;;;;;;;;;;;;;21.89;31.02;97525.81;5001125;28;1887;-77
2023/06/14 01:28:20;;;;;;;;;;;;;;;22.07;30.51;97525.94;5020100;28;1024;-76
2023/06/14 01:30:47;;;;;;;;;;;;;;;22.20;30.23;97529.56;5039040;28;925;-77
2023/06/14 01:33:23;;;;;;;;;;;;;;;22.10;30.26;97525.84;5021243;28;1131;-77
2023/06/14 01:35:52;;;;;;;;;;;;;;;21.99;30.53;97530.31;5021366;28;1084;-77
2023/06/14 01:38:19;;;;;;;;;;;;;;;21.97;30.74;97522.28;5020698;28;1137;-77
2023/06/14 01:40:45;;;;;;;;;;;;;;;22.21;30.31;97525.47;5005019;28;1111;-77
2023/06/14 01:43:10;;;;;;;;;;;;;;;22.10;30.44;97522.22;5038468;28;993;-78
2023/06/14 01:45:36;;;;;;;;;;;;;;;22.03;30.51;97530.97;5020709;28;1965;-77
2023/06/14 01:48:02;;;;;;;;;;;;;;;21.93;30.67;97535.78;5036913;28;981;-77
2023/06/14 01:50:30;;;;;;;;;;;;;;;21.99;30.67;97535.97;5037893;28;904;-77
2023/06/14 01:52:56;;;;;;;;;;;;;;;22.10;30.67;97519.38;5038097;28;930;-76
2023/06/14 01:55:22;;;;;;;;;;;;;;;21.91;30.73;97520.47;5020866;28;1002;-77
2023/06/14 01:57:47;;;;;;;;;;;;;;;22.03;30.59;97525.31;5037515;28;1047;-77
2023/06/14 02:00:14;;;;;;;;;;;;;;;21.91;30.51;97534.63;4999823;28;1175;-77
2023/06/14 02:02:40;;;;;;;;;;;;;;;21.98;30.76;97528.72;5000163;28;880;-77
2023/06/14 02:05:06;;;;;;;;;;;;;;;22.19;30.17;97527.97;4983526;28;1914;-76
2023/06/14 02:07:31;;;;;;;;;;;;;;;22.26;30.08;97526.94;5000176;28;1179;-78
2023/06/14 02:09:57;;;;;;;;;;;;;;;22.13;30.48;97523.38;4999797;28;993;-77
2023/06/14 02:12:22;;;;;;;;;;;;;;;22.08;30.35;97516.22;4984016;28;1191;-77
2023/06/14 02:14:48;;;;;;;;;;;;;;;22.04;30.27;97526.88;4983350;28;1301;-77
2023/06/14 02:17:14;;;;;;;;;;;;;;;22.10;30.44;97525.03;4999864;28;1231;-77
2023/06/14 02:19:40;;;;;;;;;;;;;;;21.97;30.80;97521.50;4960748;28;1085;-77
2023/06/14 02:22:06;;;;;;;;;;;;;;;21.95;30.89;97516.25;4960761;28;1232;-77
2023/06/14 02:24:33;;;;;;;;;;;;;;;21.84;31.00;97525.13;4976779;28;1440;-77
2023/06/14 02:26:59;;;;;;;;;;;;;;;22.02;30.50;97520.88;4977208;28;1910;-77
2023/06/14 02:29:25;;;;;;;;;;;;;;;21.94;30.61;97523.19;4944207;28;1431;-77
2023/06/14 02:31:51;;;;;;;;;;;;;;;21.97;30.74;97518.66;4990527;28;935;-78
2023/06/14 02:34:21;;;;;;;;;;;;;;;21.82;31.09;97526.84;4998735;28;1195;-77
2023/06/14 02:36:47;;;;;;;;;;;;;;;21.97;30.70;97519.44;4999353;28;844;-77
2023/06/14 02:39:13;;;;;;;;;;;;;;;22.12;30.58;97530.28;4979504;28;1389;-77
2023/06/14 02:41:39;;;;;;;;;;;;;;;22.26;30.28;97536.22;4963794;28;1214;-77
2023/06/14 02:44:04;;;;;;;;;;;;;;;22.23;30.50;97528.66;4995754;28;950;-77
2023/06/14 02:46:30;;;;;;;;;;;;;;;22.00;30.65;97527.00;4979462;28;1976;-77
2023/06/14 02:48:55;;;;;;;;;;;;;;;22.03;30.60;97528.94;4963117;28;1212;-77
2023/06/14 02:51:21;;;;;;;;;;;;;;;22.05;30.55;97528.47;4995348;28;1112;-77
2023/06/14 02:53:46;;;;;;;;;;;;;;;21.98;30.54;97526.69;4982379;28;1249;-77
2023/06/14 02:56:12;;;;;;;;;;;;;;;21.98;30.52;97538.00;4983082;28;1047;-77
2023/06/14 02:58:38;;;;;;;;;;;;;;;22.11;30.54;97535.16;4982684;28;1379;-77
2023/06/14 03:01:07;;;;;;;;;;;;;;;22.03;30.50;97536.66;4999408;28;1260;-77
2023/06/14 03:03:33;;;;;;;;;;;;;;;21.96;30.63;97536.88;4982582;28;1245;-77
2023/06/14 03:06:04;;;;;;;;;;;;;;;22.04;30.56;97541.06;4999563;28;1902;-77
2023/06/14 03:08:38;;;;;;;;;;;;;;;22.20;30.00;97537.28;4999105;28;1233;-77
2023/06/14 03:11:07;;;;;;;;;;;;;;;21.90;30.54;97542.34;5016311;28;1464;-77
2023/06/14 03:13:34;;;;;;;;;;;;;;;22.13;30.60;97544.00;5002557;28;1380;-77
2023/06/14 03:16:02;;;;;;;;;;;;;;;22.12;30.13;97544.44;4996138;28;1090;-78
2023/06/14 03:18:35;;;;;;;;;;;;;;;22.06;30.53;97553.50;4979242;28;1174;-77
2023/06/14 03:21:04;;;;;;;;;;;;;;;22.25;30.27;97545.97;4997051;28;1308;-78
2023/06/14 03:23:31;;;;;;;;;;;;;;;22.23;29.98;97544.88;4979299;28;1207;-77
2023/06/14 03:25:57;;;;;;;;;;;;;;;22.10;30.22;97544.88;4980235;28;1906;-78
2023/06/14 03:28:22;;;;;;;;;;;;;;;21.96;30.94;97548.22;4962977;28;1440;-77
2023/06/14 03:30:49;;;;;;;;;;;;;;;22.07;30.61;97548.63;4980090;28;1083;-78
2023/06/14 03:33:15;;;;;;;;;;;;;;;22.04;30.43;97549.56;4995855;28;818;-77
2023/06/14 03:35:41;;;;;;;;;;;;;;;22.15;30.22;97554.88;4979119;28;2130;-77
2023/06/14 03:38:08;;;;;;;;;;;;;;;22.12;30.69;97550.88;4944755;28;1912;-77
2023/06/14 03:40:33;;;;;;;;;;;;;;;22.21;30.34;97559.47;4961368;28;2073;-77
2023/06/14 03:43:02;;;;;;;;;;;;;;;22.11;30.51;97554.97;5013876;28;1704;-77
2023/06/14 03:45:27;;;;;;;;;;;;;;;22.04;30.72;97566.56;5018360;28;1906;-77
2023/06/14 03:47:54;;;;;;;;;;;;;;;21.92;30.81;97559.69;5034802;28;1088;-77
2023/06/14 03:50:20;;;;;;;;;;;;;;;21.90;31.02;97552.88;5039821;28;919;-77
2023/06/14 03:52:48;;;;;;;;;;;;;;;21.94;31.07;97562.06;5022738;28;1549;-77
2023/06/14 03:55:16;;;;;;;;;;;;;;;21.86;31.15;97561.50;5007197;28;1254;-77
2023/06/14 03:57:42;;;;;;;;;;;;;;;22.22;30.59;97561.06;5022655;28;1792;-77
2023/06/14 04:00:12;;;;;;;;;;;;;;;22.30;30.14;97556.72;5020929;28;1748;-76
2023/06/14 04:02:40;;;;;;;;;;;;;;;22.26;30.47;97556.06;5020894;28;933;-78
2023/06/14 04:05:08;;;;;;;;;;;;;;;21.94;31.11;97567.72;5036007;28;1972;-77
2023/06/14 04:07:44;;;;;;;;;;;;;;;21.90;31.31;97569.88;5021917;28;1492;-77
2023/06/14 04:10:13;;;;;;;;;;;;;;;22.12;30.84;97567.91;5006685;28;1430;-77
2023/06/14 04:12:39;;;;;;;;;;;;;;;22.31;30.59;97566.81;5023090;28;835;-77
2023/06/14 04:15:08;;;;;;;;;;;;;;;22.38;30.49;97562.91;5022898;28;1099;-77
2023/06/14 04:17:34;;;;;;;;;;;;;;;22.28;30.70;97567.75;4990515;28;1353;-77
2023/06/14 04:20:00;;;;;;;;;;;;;;;22.11;30.98;97566.31;5022345;28;1447;-77
2023/06/14 04:22:28;;;;;;;;;;;;;;;22.06;31.16;97569.69;5002239;28;1258;-77
2023/06/14 04:24:56;;;;;;;;;;;;;;;21.95;31.18;97563.63;5001559;28;1159;-77
2023/06/14 04:27:25;;;;;;;;;;;;;;;22.11;30.98;97577.66;4986035;28;1906;-77
2023/06/14 04:29:56;;;;;;;;;;;;;;;22.31;30.61;97563.97;4985124;28;1568;-77
2023/06/14 04:32:29;;;;;;;;;;;;;;;22.53;30.54;97568.84;5002074;28;1151;-77
2023/06/14 04:34:56;;;;;;;;;;;;;;;22.35;30.92;97578.03;4986218;28;1289;-77
2023/06/14 04:37:22;;;;;;;;;;;;;;;22.21;31.06;97584.97;4985965;28;1255;-77
2023/06/14 04:39:48;;;;;;;;;;;;;;;22.01;31.71;97584.44;5000628;28;1416;-77
2023/06/14 04:42:14;;;;;;;;;;;;;;;22.16;31.47;97582.72;5001615;28;994;-77
2023/06/14 04:44:41;;;;;;;;;;;;;;;22.15;31.33;97595.31;4959427;28;1202;-77
2023/06/14 04:47:07;;;;;;;;;;;;;;;22.23;31.13;97596.66;4944154;29;1911;-77
2023/06/14 04:49:34;;;;;;;;;;;;;;;22.19;31.05;97600.88;4938772;29;1392;-77
2023/06/14 04:52:01;;;;;;;;;;;;;;;22.11;31.58;97600.31;4940622;29;982;-76
2023/06/14 04:54:44;;;;;;;;;;;;;;;22.16;31.54;97613.13;4947701;28;1252;-77
2023/06/14 04:57:14;;;;;;;;;;;;;;;22.32;31.25;97608.06;4961971;28;1173;-77
2023/06/14 04:59:41;;;;;;;;;;;;;;;22.24;31.31;97603.91;4960982;28;1329;-77
2023/06/14 05:02:08;;;;;;;;;;;;;;;22.28;31.38;97609.47;4924245;29;1166;-77
2023/06/14 05:04:34;;;;;;;;;;;;;;;22.34;31.18;97608.41;4908240;29;1142;-77
2023/06/14 05:07:02;;;;;;;;;;;;;;;22.27;30.92;97611.47;4924365;29;1907;-76
2023/06/14 05:09:28;;;;;;;;;;;;;;;22.03;31.60;97610.31;4880240;29;1472;-77
2023/06/14 05:11:53;;;;;;;;;;;;;;;22.14;31.69;97610.75;4868050;29;1155;-77
2023/06/14 05:14:22;;;;;;;;;;;;;;;22.30;31.23;97613.41;4864236;29;1246;-77
2023/06/14 05:16:49;;;;;;;;;;;;;;;22.28;31.41;97615.91;4882902;29;1206;-76
2023/06/14 05:19:14;;;;;;;;;;;;;;;22.26;31.32;97612.75;4876248;29;1467;-76
2023/06/14 05:21:40;;;;;;;;;;;;;;;22.18;31.65;97619.13;4899926;29;1673;-78
2023/06/14 05:24:05;;;;;;;;;;;;;;;22.18;31.45;97625.59;4901484;29;1064;-77
2023/06/14 05:26:31;;;;;;;;;;;;;;;22.29;31.14;97628.84;4886779;29;1973;-77
2023/06/14 05:28:57;;;;;;;;;;;;;;;22.26;31.30;97634.63;4885028;29;1436;-76
2023/06/14 05:31:25;;;;;;;;;;;;;;;22.29;31.27;97634.50;4886250;29;998;-77
2023/06/14 05:33:51;;;;;;;;;;;;;;;22.21;31.48;97640.88;4931438;29;1003;-77
2023/06/14 05:36:16;;;;;;;;;;;;;;;22.10;31.35;97644.03;4943045;29;1125;-77
2023/06/14 05:38:42;;;;;;;;;;;;;;;22.32;31.19;97644.13;4925666;29;1496;-77
2023/06/14 05:41:07;;;;;;;;;;;;;;;22.22;31.33;97645.28;4927316;29;1296;-76
2023/06/14 05:43:33;;;;;;;;;;;;;;;22.17;31.28;97649.47;4958249;29;1018;-77
2023/06/14 05:45:58;;;;;;;;;;;;;;;22.30;30.97;97658.75;4947312;28;1906;-77
2023/06/14 05:48:24;;;;;;;;;;;;;;;22.32;30.88;97656.25;5022292;28;1356;-77
2023/06/14 05:50:50;;;;;;;;;;;;;;;22.44;30.61;97659.53;5037674;28;962;-77
2023/06/14 05:53:15;;;;;;;;;;;;;;;22.36;31.06;97662.59;5020177;28;1424;-77
2023/06/14 05:55:41;;;;;;;;;;;;;;;22.44;30.91;97668.03;5033891;28;978;-77
2023/06/14 05:58:06;;;;;;;;;;;;;;;22.16;31.08;97664.91;5019874;28;1372;-77
2023/06/14 06:00:32;;;;;;;;;;;;;;;22.30;30.84;97670.09;5002817;28;1400;-78
2023/06/14 06:02:57;;;;;;;;;;;;;;;22.16;31.10;97664.91;5020831;28;909;-76
2023/06/14 06:05:23;;;;;;;;;;;;;;;21.70;31.06;97587.91;5020053;28;1965;-77
2023/06/14 06:07:49;;;;;;;;;;;;;;;22.24;31.23;97677.59;5019625;28;1413;-78
2023/06/14 06:10:15;;;;;;;;;;;;;;;22.18;31.52;97679.44;5019542;28;1193;-77
2023/06/14 06:12:43;;;;;;;;;;;;;;;22.26;31.31;97680.75;5020516;28;956;-77
2023/06/14 06:15:11;;;;;;;;;;;;;;;22.36;31.00;97673.94;5036359;28;966;-77
2023/06/14 06:17:37;;;;;;;;;;;;;;;22.08;31.64;97686.22;5036403;28;1051;-77
2023/06/14 06:20:05;;;;;;;;;;;;;;;22.35;31.05;97672.34;5015289;28;1334;-77
2023/06/14 06:22:30;;;;;;;;;;;;;;;22.40;31.11;97678.69;5033258;28;1131;-78
2023/06/14 06:24:56;;;;;;;;;;;;;;;22.45;30.84;97678.09;5033493;28;890;-77
2023/06/14 06:27:21;;;;;;;;;;;;;;;22.28;31.27;97677.47;5016531;28;1969;-76
2023/06/14 06:29:48;;;;;;;;;;;;;;;22.29;31.29;97679.06;5048286;28;1367;-77
2023/06/14 06:32:14;;;;;;;;;;;;;;;22.04;31.65;97675.00;5020158;28;930;-77
2023/06/14 06:34:40;;;;;;;;;;;;;;;22.26;31.44;97685.63;5014025;28;1395;-76
2023/06/14 06:37:06;;;;;;;;;;;;;;;22.21;31.51;97681.34;5017693;28;1518;-77
2023/06/14 06:39:31;;;;;;;;;;;;;;;22.25;31.58;97679.19;5019767;28;899;-77
2023/06/14 06:41:57;;;;;;;;;;;;;;;22.27;31.54;97688.00;5036606;28;1321;-77
2023/06/14 06:44:31;;;;;;;;;;;;;;;22.37;31.44;97686.06;5036056;28;1218;-77
2023/06/14 06:46:57;;;;;;;;;;;;;;;22.49;30.93;97678.78;5034793;28;1968;-77
2023/06/14 06:49:23;;;;;;;;;;;;;;;22.10;31.75;97683.72;5036058;28;850;-77
2023/06/14 06:52:04;;;;;;;;;;;;;;;22.15;31.48;97685.22;5036364;28;944;-77
2023/06/14 06:54:30;;;;;;;;;;;;;;;22.22;31.70;97685.75;5019657;28;1230;-77
2023/06/14 06:56:55;;;;;;;;;;;;;;;22.14;31.61;97678.75;5014799;28;1576;-76
2023/06/14 06:59:21;;;;;;;;;;;;;;;22.20;31.80;97688.25;4998537;28;1028;-77
2023/06/14 07:01:46;;;;;;;;;;;;;;;22.33;31.50;97677.69;4999103;28;942;-77
2023/06/14 07:04:12;;;;;;;;;;;;;;;22.35;31.49;97678.00;4998829;28;982;-76
2023/06/14 07:06:38;;;;;;;;;;;;;;;22.30;31.64;97681.44;4998585;28;1910;-77
2023/06/14 07:09:05;;;;;;;;;;;;;;;22.12;32.02;97686.91;5015110;28;985;-77
2023/06/14 07:11:30;;;;;;;;;;;;;;;22.26;31.98;97679.97;4983330;28;1256;-77
2023/06/14 07:13:56;;;;;;;;;;;;;;;22.53;31.34;97673.75;4998564;28;1193;-77
2023/06/14 07:16:21;;;;;;;;;;;;;;;22.53;31.48;97677.38;4992347;28;1401;-77
2023/06/14 07:18:47;;;;;;;;;;;;;;;22.57;31.08;97677.25;5002471;28;1253;-77
2023/06/14 07:21:12;;;;;;;;;;;;;;;22.54;31.36;97678.97;4986749;28;1333;-77
2023/06/14 07:23:38;;;;;;;;;;;;;;;22.33;31.58;97691.06;5018649;28;989;-77
2023/06/14 07:26:03;;;;;;;;;;;;;;;22.55;31.13;97685.44;5018460;28;1979;-77
2023/06/14 07:28:29;;;;;;;;;;;;;;;22.06;32.02;97691.53;5016924;28;1212;-77
2023/06/14 07:30:54;;;;;;;;;;;;;;;22.44;31.05;97680.16;5005502;28;1368;-77
2023/06/14 07:33:20;;;;;;;;;;;;;;;22.23;31.57;97687.34;5021585;28;1444;-77
2023/06/14 07:35:45;;;;;;;;;;;;;;;22.51;30.88;97685.56;5038512;28;947;-77
2023/06/14 07:38:11;;;;;;;;;;;;;;;22.37;31.11;97683.22;5038495;28;1200;-77
2023/06/14 07:40:36;;;;;;;;;;;;;;;22.40;30.97;97690.03;5021901;28;1144;-77
2023/06/14 07:43:02;;;;;;;;;;;;;;;22.44;30.67;97685.03;5020186;28;1504;-77
2023/06/14 07:45:28;;;;;;;;;;;;;;;22.53;30.57;97687.94;5037670;28;1906;-77
2023/06/14 07:47:53;;;;;;;;;;;;;;;22.25;31.18;97684.84;5039244;28;933;-77
2023/06/14 07:50:19;;;;;;;;;;;;;;;22.07;31.46;97687.44;5022755;28;1141;-77
2023/06/14 07:52:45;;;;;;;;;;;;;;;22.12;31.41;97686.91;5037477;28;1421;-76
2023/06/14 07:55:10;;;;;;;;;;;;;;;22.21;31.30;97689.84;5021700;28;989;-77
2023/06/14 07:57:36;;;;;;;;;;;;;;;22.15;31.41;97691.66;5022009;28;939;-77
2023/06/14 08:00:02;;;;;;;;;;;;;;;22.07;31.11;97687.44;5021289;28;1274;-78
2023/06/14 08:02:37;;;;;;;;;;;;;;;22.19;31.29;97692.34;5007007;28;1325;-76
2023/06/14 08:05:03;;;;;;;;;;;;;;;22.27;31.03;97705.00;5005031;28;1391;-77
2023/06/14 08:07:28;;;;;;;;;;;;;;;22.13;31.38;97704.72;5001490;28;1906;-77
2023/06/14 08:09:54;;;;;;;;;;;;;;;22.26;31.02;97694.94;5013472;28;1510;-77
2023/06/14 08:12:19;;;;;;;;;;;;;;;22.15;31.53;97702.22;5021348;28;1657;-77
2023/06/14 08:14:45;;;;;;;;;;;;;;;22.27;31.42;97702.19;5004634;28;1822;-77
2023/06/14 08:17:10;;;;;;;;;;;;;;;22.21;31.53;97718.19;5021459;28;921;-77
2023/06/14 08:19:36;;;;;;;;;;;;;;;22.22;31.21;97716.13;5038216;28;1024;-77
2023/06/14 08:22:03;;;;;;;;;;;;;;;22.26;31.17;97714.75;5021758;28;1318;-77
2023/06/14 08:24:29;;;;;;;;;;;;;;;22.16;31.35;97703.78;5008765;28;1245;-77
2023/06/14 08:26:54;;;;;;;;;;;;;;;22.30;31.09;97715.44;5038049;28;1906;-77
2023/06/14 08:29:20;;;;;;;;;;;;;;;22.28;31.35;97709.44;5021891;28;1237;-77
2023/06/14 08:31:46;;;;;;;;;;;;;;;22.22;31.44;97714.09;5037364;28;884;-77
2023/06/14 08:34:11;;;;;;;;;;;;;;;22.41;31.18;97708.63;5005374;28;1688;-77
2023/06/14 08:36:37;;;;;;;;;;;;;;;22.31;31.54;97717.03;5038213;28;1075;-77
2023/06/14 08:39:03;;;;;;;;;;;;;;;22.44;31.29;97708.50;5038421;28;1248;-77
2023/06/14 08:41:29;;;;;;;;;;;;;;;22.26;31.29;97714.75;5039135;28;1385;-78
2023/06/14 08:43:55;;;;;;;;;;;;;;;22.11;31.70;97696.66;5037561;28;1482;-77
2023/06/14 08:46:22;;;;;;;;;;;;;;;22.17;31.80;97708.22;5038513;28;1918;-77
2023/06/14 08:48:49;;;;;;;;;;;;;;;22.25;31.67;97718.84;5021933;28;1382;-78
2023/06/14 08:51:16;;;;;;;;;;;;;;;22.21;31.41;97706.84;5005601;28;1335;-77
2023/06/14 08:53:42;;;;;;;;;;;;;;;22.00;31.75;97701.84;5021647;28;1119;-77
2023/06/14 08:56:13;;;;;;;;;;;;;;;21.85;32.28;97699.47;5037292;28;1507;-77
2023/06/14 08:58:47;;;;;;;;;;;;;;;22.22;31.67;97702.75;5037507;28;1620;-77
2023/06/14 09:01:14;;;;;;;;;;;;;;;22.30;31.56;97704.09;5039173;28;1517;-77
2023/06/14 09:03:43;;;;;;;;;;;;;;;22.05;31.94;97692.78;5038778;28;905;-76
2023/06/14 09:06:13;;;;;;;;;;;;;;;22.11;31.99;97696.66;5037949;28;1983;-77
2023/06/14 09:08:42;;;;;;;;;;;;;;;22.26;31.68;97691.31;5021108;28;1019;-77
2023/06/14 09:11:08;;;;;;;;;;;;;;;22.26;31.73;97692.09;5036988;28;1371;-77
2023/06/14 09:13:33;;;;;;;;;;;;;;;22.14;31.56;97695.75;5037318;28;1373;-77
2023/06/14 09:15:59;;;;;;;;;;;;;;;22.21;31.61;97684.16;5038626;28;925;-76
2023/06/14 09:18:33;;;;;;;;;;;;;;;22.08;31.58;97686.22;5038628;28;927;-77
2023/06/14 09:20:59;;;;;;;;;;;;;;;22.28;31.38;97689.63;4983527;28;1436;-77
2023/06/14 09:23:24;;;;;;;;;;;;;;;22.28;31.31;97689.63;4999757;28;987;-77
2023/06/14 09:25:50;;;;;;;;;;;;;;;22.19;31.46;97685.88;5000280;28;1979;-77
2023/06/14 09:28:15;;;;;;;;;;;;;;;22.23;31.44;97693.03;4999556;28;954;-77
2023/06/14 09:30:41;;;;;;;;;;;;;;;22.60;30.91;97682.03;4960780;28;1655;-77
2023/06/14 09:33:07;;;;;;;;;;;;;;;22.41;31.16;97685.94;4928982;28;1140;-76
2023/06/14 09:35:32;;;;;;;;;;;;;;;22.27;31.26;97688.00;4961210;28;955;-77
2023/06/14 09:37:58;;;;;;;;;;;;;;;22.16;31.75;97690.41;4944951;28;1117;-76
2023/06/14 09:40:23;;;;;;;;;;;;;;;22.27;31.52;97692.88;4944486;28;1367;-77
2023/06/14 09:42:49;;;;;;;;;;;;;;;22.30;31.29;97687.09;4960544;28;1213;-77
2023/06/14 09:45:19;;;;;;;;;;;;;;;22.12;31.48;97686.09;4945224;28;1973;-77
2023/06/14 09:47:44;;;;;;;;;;;;;;;22.31;31.40;97688.69;4977526;28;946;-77
2023/06/14 09:50:10;;;;;;;;;;;;;;;22.30;31.37;97678.59;4944319;28;1508;-77
2023/06/14 09:52:35;;;;;;;;;;;;;;;21.99;31.54;97684.06;4976425;28;1488;-78
2023/06/14 09:55:01;;;;;;;;;;;;;;;22.04;31.38;97696.88;4960205;28;1408;-77
2023/06/14 09:57:26;;;;;;;;;;;;;;;22.27;31.12;97699.34;4961220;28;1065;-77
2023/06/14 10:00:03;;;;;;;;;;;;;;;22.30;31.36;97695.59;4944956;28;1053;-77
2023/06/14 10:02:38;;;;;;;;;;;;;;;22.35;31.21;97697.06;4983191;28;1539;-77
2023/06/14 10:05:05;;;;;;;;;;;;;;;22.26;31.23;97694.94;4976575;28;916;-77
2023/06/14 10:07:32;;;;;;;;;;;;;;;22.20;31.41;97693.94;4977239;28;1910;-76
2023/06/14 10:09:57;;;;;;;;;;;;;;;22.40;30.79;97692.88;4960810;28;1331;-78
2023/06/14 10:12:23;;;;;;;;;;;;;;;22.00;31.27;97696.19;5001048;28;1488;-77
2023/06/14 10:14:49;;;;;;;;;;;;;;;22.08;31.24;97691.88;4963604;28;1004;-77
2023/06/14 10:17:17;;;;;;;;;;;;;;;22.31;30.89;97699.22;4995037;28;1609;-77
2023/06/14 10:19:44;;;;;;;;;;;;;;;22.15;31.06;97691.66;4999143;28;913;-77
2023/06/14 10:22:10;;;;;;;;;;;;;;;22.34;30.62;97699.13;5013621;28;1582;-76
2023/06/14 10:24:40;;;;;;;;;;;;;;;22.33;30.82;97697.53;4980055;28;977;-76
2023/06/14 10:27:10;;;;;;;;;;;;;;;22.19;30.88;97703.69;4982566;28;1906;-77
2023/06/14 10:29:46;;;;;;;;;;;;;;;22.39;30.71;97694.13;5015664;28;1100;-77
2023/06/14 10:32:12;;;;;;;;;;;;;;;22.25;30.88;97701.84;5032236;28;1400;-77
2023/06/14 10:34:38;;;;;;;;;;;;;;;22.30;30.60;97700.47;4986447;28;1274;-77
2023/06/14 10:37:07;;;;;;;;;;;;;;;22.23;30.89;97704.34;5019072;28;908;-77
2023/06/14 10:39:42;;;;;;;;;;;;;;;22.28;30.40;97695.28;5018701;28;968;-77
2023/06/14 10:42:08;;;;;;;;;;;;;;;22.40;30.56;97696.50;4964339;28;1393;-76
2023/06/14 10:44:37;;;;;;;;;;;;;;;22.36;30.48;97702.28;4964913;28;1207;-77
2023/06/14 10:47:06;;;;;;;;;;;;;;;22.21;31.16;97709.66;4964986;28;1960;-77
2023/06/14 10:49:45;;;;;;;;;;;;;;;22.04;31.18;97713.88;4998587;28;986;-77
2023/06/14 10:52:18;;;;;;;;;;;;;;;22.24;30.83;97710.81;4996332;28;1311;-77
2023/06/14 10:55:00;;;;;;;;;;;;;;;22.12;30.73;97715.25;5000119;28;876;-77
2023/06/14 10:57:26;;;;;;;;;;;;;;;22.20;30.87;97704.47;5000282;28;822;-77
2023/06/14 10:59:52;;;;;;;;;;;;;;;22.14;30.82;97704.25;5000342;28;903;-76
2023/06/14 11:02:36;;;;;;;;;;;;;;;22.13;30.83;97704.72;4998347;28;1491;-77
2023/06/14 11:05:05;;;;;;;;;;;;;;;21.98;31.35;97708.00;5017499;28;908;-77
2023/06/14 11:07:48;;;;;;;;;;;;;;;22.17;30.96;97705.38;5000371;28;1915;-77
2023/06/14 11:10:31;;;;;;;;;;;;;;;22.36;30.33;97710.78;4983909;28;1108;-77
2023/06/14 11:12:57;;;;;;;;;;;;;;;22.19;30.55;97708.56;4996957;28;873;-77
2023/06/14 11:15:29;;;;;;;;;;;;;;;22.24;30.57;97705.16;4996440;28;858;-77
2023/06/14 11:17:56;;;;;;;;;;;;;;;22.29;30.61;97702.53;4996521;28;1135;-77
2023/06/14 11:20:22;;;;;;;;;;;;;;;22.22;30.56;97702.75;4996619;28;944;-76
2023/06/14 11:22:48;;;;;;;;;;;;;;;22.15;30.81;97697.34;5014972;28;1552;-76
2023/06/14 11:25:13;;;;;;;;;;;;;;;22.06;30.76;97705.69;4999798;28;807;-77
2023/06/14 11:27:39;;;;;;;;;;;;;;;21.96;30.89;97701.19;4999814;28;1973;-77
2023/06/14 11:30:07;;;;;;;;;;;;;;;21.96;30.95;97699.13;5016073;28;1054;-77
2023/06/14 11:32:32;;;;;;;;;;;;;;;22.20;30.44;97705.25;4984264;28;1386;-77
2023/06/14 11:34:58;;;;;;;;;;;;;;;22.12;30.49;97709.56;4997955;28;901;-77
2023/06/14 11:37:30;;;;;;;;;;;;;;;22.34;30.26;97710.44;4996724;28;976;-77
2023/06/14 11:39:57;;;;;;;;;;;;;;;22.27;30.17;97716.34;4999156;28;1276;-77
2023/06/14 11:42:22;;;;;;;;;;;;;;;22.22;30.37;97714.09;5048050;28;1312;-77
2023/06/14 11:44:49;;;;;;;;;;;;;;;22.18;30.40;97712.66;5019029;28;873;-78
2023/06/14 11:47:14;;;;;;;;;;;;;;;22.22;30.29;97713.28;5035642;28;1977;-77
2023/06/14 11:49:40;;;;;;;;;;;;;;;22.06;30.42;97705.69;5019554;28;932;-77
2023/06/14 11:52:05;;;;;;;;;;;;;;;22.05;30.38;97718.28;5017400;28;1418;-77
2023/06/14 11:54:34;;;;;;;;;;;;;;;22.23;30.32;97709.25;4995068;28;1209;-77
2023/06/14 11:56:59;;;;;;;;;;;;;;;22.27;30.01;97716.34;4959806;28;1299;-77
2023/06/14 11:59:25;;;;;;;;;;;;;;;22.36;29.80;97707.94;4975903;28;1127;-77
2023/06/14 12:01:54;;;;;;;;;;;;;;;22.34;29.66;97713.28;4985628;28;1387;-77
2023/06/14 12:04:28;;;;;;;;;;;;;;;22.19;29.93;97709.34;4978956;28;936;-77
2023/06/14 12:06:55;;;;;;;;;;;;;;;22.23;29.82;97704.34;4982572;28;1906;-77
2023/06/14 12:09:23;;;;;;;;;;;;;;;22.12;30.25;97703.91;4982092;28;1154;-77
2023/06/14 12:11:48;;;;;;;;;;;;;;;22.31;29.69;97705.69;4981828;28;1421;-77
2023/06/14 12:14:14;;;;;;;;;;;;;;;22.02;30.39;97700.16;4998089;28;970;-77
2023/06/14 12:16:41;;;;;;;;;;;;;;;22.08;30.02;97700.38;4981906;28;988;-76
2023/06/14 12:19:12;;;;;;;;;;;;;;;22.09;30.27;97705.59;4982062;28;996;-77
2023/06/14 12:21:40;;;;;;;;;;;;;;;22.13;30.07;97704.72;4981559;28;1425;-77
2023/06/14 12:24:06;;;;;;;;;;;;;;;21.98;30.20;97705.16;4985209;28;1187;-77
2023/06/14 12:26:32;;;;;;;;;;;;;;;22.04;29.91;97702.53;5001538;28;1887;-77
2023/06/14 12:28:57;;;;;;;;;;;;;;;21.77;30.33;97706.63;4968606;28;1050;-77
2023/06/14 12:31:23;;;;;;;;;;;;;;;22.13;29.85;97699.84;5023225;28;1364;-77
2023/06/14 12:33:49;;;;;;;;;;;;;;;21.98;30.04;97687.38;5037213;28;1282;-77
2023/06/14 12:36:15;;;;;;;;;;;;;;;22.25;29.56;97690.50;5022039;28;1708;-77
2023/06/14 12:38:41;;;;;;;;;;;;;;;22.20;29.63;97698.81;5038185;28;904;-77
2023/06/14 12:41:07;;;;;;;;;;;;;;;22.30;29.52;97692.78;5021458;28;1503;-77
2023/06/14 12:43:33;;;;;;;;;;;;;;;22.35;29.57;97683.69;5038974;28;885;-77
2023/06/14 12:45:59;;;;;;;;;;;;;;;22.07;29.81;97690.28;5005400;28;1970;-77
2023/06/14 12:48:24;;;;;;;;;;;;;;;21.96;29.78;97689.84;5037079;28;1371;-77
2023/06/14 12:50:49;;;;;;;;;;;;;;;22.05;29.82;97689.94;5037948;28;887;-77
2023/06/14 12:53:15;;;;;;;;;;;;;;;22.23;29.55;97687.34;5038607;28;882;-77
2023/06/14 12:55:40;;;;;;;;;;;;;;;21.91;30.14;97682.72;5038243;28;917;-77
2023/06/14 12:58:06;;;;;;;;;;;;;;;22.13;29.81;97673.56;5038776;28;883;-77